Time;durP1;ratioP1;P1;durP2;ratioP2;P2;SDS_P1;SDS_P2;PMS_P1;PMS_P2;Temp;Humidity;BMP_temperature;BMP_pressure;BME280_temperature;BME280_humidity;BME280_pressure;Samples;Min_cycle;Max_cycle;Signal;HPM_P1;HPM_P2
2022/12/26 00:03:01;;;;;;;89.78;38.42;;;;;;;;;;6253724;28;20049;-74
2022/12/26 00:06:04;;;;;;;97.32;40.35;;;;;;;;;;6266600;28;20060;-74
2022/12/26 00:09:06;;;;;;;99.97;41.63;;;;;;;;;;6269887;28;20527;-74
2022/12/26 00:12:08;;;;;;;89.95;38.97;;;;;;;;;;6264730;28;20060;-74
2022/12/26 00:15:10;;;;;;;94.65;38.78;;;;;;;;;;6265920;28;20107;-70
2022/12/26 00:18:12;;;;;;;84.22;38.60;;;;;;;;;;6268595;28;20141;-74
2022/12/26 00:21:16;;;;;;;87.72;37.90;;;;;;;;;;6268382;28;20095;-74
2022/12/26 00:24:18;;;;;;;90.38;38.83;;;;;;;;;;6265518;28;20048;-73
2022/12/26 00:27:19;;;;;;;84.45;37.78;;;;;;;;;;6267175;28;20052;-73
2022/12/26 00:30:21;;;;;;;95.38;40.72;;;;;;;;;;6267207;28;20110;-72
2022/12/26 00:33:23;;;;;;;91.88;38.97;;;;;;;;;;6266503;28;20087;-73
2022/12/26 00:36:28;;;;;;;90.90;38.53;;;;;;;;;;6264302;28;20049;-75
2022/12/26 00:39:30;;;;;;;81.45;38.65;;;;;;;;;;6265610;28;20326;-76
2022/12/26 00:42:31;;;;;;;84.82;37.85;;;;;;;;;;6267521;28;20049;-75
2022/12/26 00:45:33;;;;;;;93.90;37.30;;;;;;;;;;6267226;28;20049;-73
2022/12/26 00:48:35;;;;;;;94.05;39.40;;;;;;;;;;6266029;28;20073;-73
2022/12/26 00:51:38;;;;;;;92.20;37.78;;;;;;;;;;6267617;28;20060;-74
2022/12/26 00:54:40;;;;;;;92.38;38.08;;;;;;;;;;6265028;28;20036;-74
2022/12/26 00:57:41;;;;;;;90.47;39.03;;;;;;;;;;6266881;28;20053;-73
2022/12/26 01:00:43;;;;;;;92.55;38.25;;;;;;;;;;6266881;28;20057;-74
2022/12/26 01:03:46;;;;;;;91.72;39.55;;;;;;;;;;6264564;28;21857;-74
2022/12/26 01:06:49;;;;;;;91.88;37.72;;;;;;;;;;6265959;28;20332;-74
2022/12/26 01:09:51;;;;;;;94.50;39.88;;;;;;;;;;6264929;28;20053;-75
2022/12/26 01:12:52;;;;;;;93.05;40.65;;;;;;;;;;6265701;28;20060;-76
2022/12/26 01:15:54;;;;;;;93.25;38.42;;;;;;;;;;6266558;28;20045;-72
2022/12/26 01:18:56;;;;;;;91.53;39.38;;;;;;;;;;6266298;28;20045;-77
2022/12/26 01:21:59;;;;;;;85.32;37.90;;;;;;;;;;6264924;28;20049;-76
2022/12/26 01:25:00;;;;;;;82.07;37.22;;;;;;;;;;6266224;28;20064;-73
2022/12/26 01:28:02;;;;;;;78.22;36.88;;;;;;;;;;6263954;28;20096;-76
2022/12/26 01:31:04;;;;;;;75.07;35.05;;;;;;;;;;6267292;28;20059;-74
2022/12/26 01:34:06;;;;;;;77.15;36.72;;;;;;;;;;6265699;28;20052;-76
2022/12/26 01:37:11;;;;;;;84.68;35.63;;;;;;;;;;6262763;28;20126;-70
2022/12/26 01:40:13;;;;;;;76.05;35.35;;;;;;;;;;6266000;28;20041;-74
2022/12/26 01:43:15;;;;;;;78.68;34.63;;;;;;;;;;6263988;28;20072;-74
2022/12/26 01:46:20;;;;;;;74.85;35.35;;;;;;;;;;6266306;28;20241;-72
2022/12/26 01:49:21;;;;;;;;;;;;;;;;;;6267768;28;20214;-73
2022/12/26 01:52:30;;;;;;;79.72;34.60;;;;;;;;;;6264776;28;19983;-74
2022/12/26 01:55:33;;;;;;;75.65;35.40;;;;;;;;;;6261930;28;20126;-75
2022/12/26 01:58:37;;;;;;;74.28;34.72;;;;;;;;;;6267854;28;20049;-75
2022/12/26 02:01:41;;;;;;;73.75;34.55;;;;;;;;;;6260717;28;20085;-70
2022/12/26 02:08:09;;;;;;;76.93;34.50;;;;;;;;;;6262558;28;20053;-74
2022/12/26 02:11:13;;;;;;;77.85;36.60;;;;;;;;;;6262624;28;20056;-74
2022/12/26 02:14:15;;;;;;;72.65;33.58;;;;;;;;;;6262426;28;20053;-74
2022/12/26 02:17:17;;;;;;;74.13;34.05;;;;;;;;;;6264134;28;20065;-74
2022/12/26 02:20:21;;;;;;;68.78;33.05;;;;;;;;;;6266296;28;20044;-74
2022/12/26 02:24:11;;;;;;;70.60;31.65;;;;;;;;;;6263330;28;20055;-74
2022/12/26 02:27:32;;;;;;;69.13;32.70;;;;;;;;;;6264203;28;20190;-75
2022/12/26 02:30:41;;;;;;;67.50;31.10;;;;;;;;;;6268998;28;20045;-72
2022/12/26 02:33:49;;;;;;;61.33;30.15;;;;;;;;;;6262399;28;20053;-72
2022/12/26 02:36:59;;;;;;;58.72;31.55;;;;;;;;;;6267047;28;20114;-75
2022/12/26 02:40:11;;;;;;;63.90;29.92;;;;;;;;;;6267038;28;20271;-74
2022/12/26 02:43:19;;;;;;;62.55;31.40;;;;;;;;;;6263986;28;20115;-70
2022/12/26 03:13:36;;;;;;;50.72;25.98;;;;;;;;;;6267965;28;20049;-74
2022/12/26 03:20:02;;;;;;;59.28;27.50;;;;;;;;;;6266097;28;20053;-75
2022/12/26 03:23:06;;;;;;;51.03;25.98;;;;;;;;;;6267761;28;20092;-75
2022/12/26 03:32:47;;;;;;;52.50;26.55;;;;;;;;;;6266426;28;20056;-75
2022/12/26 03:35:50;;;;;;;56.33;26.77;;;;;;;;;;6266379;28;20240;-75
2022/12/26 03:38:55;;;;;;;50.80;26.48;;;;;;;;;;6264005;28;20045;-72
2022/12/26 04:19:49;;;;;;;44.17;21.52;;;;;;;;;;6167439;28;20086;-75
2022/12/26 04:46:26;;;;;;;39.33;22.05;;;;;;;;;;6264314;28;20053;-74
2022/12/26 04:52:58;;;;;;;41.75;23.08;;;;;;;;;;6263434;28;20057;-72
2022/12/26 04:56:00;;;;;;;48.40;25.17;;;;;;;;;;6265729;28;20051;-75
2022/12/26 04:59:03;;;;;;;43.92;24.35;;;;;;;;;;6267628;28;20111;-75
2022/12/26 05:12:05;;;;;;;54.28;28.30;;;;;;;;;;6264748;28;20092;-74
2022/12/26 05:15:09;;;;;;;50.30;27.40;;;;;;;;;;6264974;28;20053;-74
2022/12/26 05:31:31;;;;;;;61.10;30.42;;;;;;;;;;6263879;28;20061;-75
2022/12/26 05:34:32;;;;;;;56.72;29.08;;;;;;;;;;6263307;28;20064;-74
2022/12/26 05:37:34;;;;;;;58.17;28.45;;;;;;;;;;6264194;28;20328;-75
2022/12/26 05:40:36;;;;;;;57.60;28.10;;;;;;;;;;6261056;28;20119;-71
2022/12/26 05:43:37;;;;;;;58.95;28.45;;;;;;;;;;6264070;28;20049;-75
2022/12/26 05:46:41;;;;;;;54.22;28.23;;;;;;;;;;6263284;28;20115;-75
2022/12/26 05:49:42;;;;;;;53.35;29.42;;;;;;;;;;6264105;28;20053;-74
2022/12/26 05:52:44;;;;;;;56.58;27.95;;;;;;;;;;6262720;28;20049;-75
2022/12/26 05:55:46;;;;;;;53.63;26.52;;;;;;;;;;6264455;28;20065;-76
2022/12/26 05:58:47;;;;;;;48.63;26.00;;;;;;;;;;6267444;28;20049;-76
2022/12/26 06:01:50;;;;;;;49.28;25.55;;;;;;;;;;6261252;28;20053;-76
2022/12/26 06:04:52;;;;;;;36.60;21.42;;;;;;;;;;6261135;28;20053;-75
2022/12/26 06:07:54;;;;;;;36.92;21.52;;;;;;;;;;6265681;28;20041;-75
2022/12/26 06:10:55;;;;;;;34.50;19.15;;;;;;;;;;6265072;28;20045;-76
2022/12/26 06:13:57;;;;;;;37.90;21.33;;;;;;;;;;6265565;28;20371;-76
2022/12/26 06:17:00;;;;;;;38.65;21.85;;;;;;;;;;6263354;28;20339;-75
2022/12/26 06:20:02;;;;;;;42.72;21.65;;;;;;;;;;6264596;28;20057;-71
2022/12/26 06:23:04;;;;;;;41.30;22.75;;;;;;;;;;6264479;28;20127;-75
2022/12/26 06:26:08;;;;;;;45.97;24.35;;;;;;;;;;6264683;28;20342;-75
2022/12/26 06:29:10;;;;;;;49.67;26.48;;;;;;;;;;6263554;28;20041;-75
2022/12/26 06:32:13;;;;;;;52.55;27.10;;;;;;;;;;6260054;28;20057;-76
2022/12/26 06:35:14;;;;;;;57.92;28.30;;;;;;;;;;6260414;28;20269;-74
2022/12/26 06:38:16;;;;;;;54.58;27.52;;;;;;;;;;6262790;28;20229;-74
2022/12/26 06:41:19;;;;;;;52.28;27.13;;;;;;;;;;6265429;28;20045;-72
2022/12/26 06:44:21;;;;;;;58.63;29.77;;;;;;;;;;6262538;28;20072;-75
2022/12/26 06:47:24;;;;;;;60.40;27.90;;;;;;;;;;6263203;28;20361;-75
2022/12/26 06:50:26;;;;;;;69.20;31.87;;;;;;;;;;6262542;28;20052;-75
2022/12/26 06:53:28;;;;;;;66.75;30.65;;;;;;;;;;6263380;28;20075;-76
2022/12/26 06:56:31;;;;;;;66.53;31.30;;;;;;;;;;6262854;28;20249;-75
2022/12/26 06:59:33;;;;;;;72.50;33.42;;;;;;;;;;6263689;28;20115;-76
2022/12/26 07:02:36;;;;;;;67.75;32.33;;;;;;;;;;6263574;28;20391;-74
2022/12/26 07:05:38;;;;;;;70.88;31.90;;;;;;;;;;6261299;28;20060;-75
2022/12/26 07:08:39;;;;;;;66.78;31.55;;;;;;;;;;6262672;28;20041;-72
2022/12/26 07:11:42;;;;;;;66.85;32.92;;;;;;;;;;6264470;28;20349;-75
2022/12/26 07:14:44;;;;;;;66.50;32.50;;;;;;;;;;6264547;28;20049;-75
2022/12/26 07:17:47;;;;;;;73.03;33.30;;;;;;;;;;6267477;28;20057;-72
2022/12/26 07:20:48;;;;;;;67.68;33.47;;;;;;;;;;6269146;28;20098;-76
2022/12/26 07:23:51;;;;;;;62.90;32.03;;;;;;;;;;6266383;28;20059;-75
2022/12/26 07:26:52;;;;;;;68.07;32.90;;;;;;;;;;6268485;28;20056;-74
2022/12/26 07:29:54;;;;;;;72.63;34.10;;;;;;;;;;6265642;28;20060;-74
2022/12/26 07:32:57;;;;;;;65.78;32.85;;;;;;;;;;6268128;28;20048;-72
2022/12/26 07:36:00;;;;;;;67.85;31.95;;;;;;;;;;6265473;28;20146;-76
2022/12/26 07:39:01;;;;;;;65.53;32.38;;;;;;;;;;6265994;28;20229;-75
2022/12/26 07:42:03;;;;;;;66.55;32.45;;;;;;;;;;6267265;28;20057;-76
2022/12/26 07:45:06;;;;;;;68.10;32.55;;;;;;;;;;6266672;28;20094;-72
2022/12/26 07:48:09;;;;;;;63.75;31.45;;;;;;;;;;6266029;28;20115;-72
2022/12/26 07:51:11;;;;;;;72.38;31.63;;;;;;;;;;6270779;28;20059;-72
2022/12/26 07:54:12;;;;;;;65.22;32.88;;;;;;;;;;6265200;28;20280;-72
2022/12/26 07:57:14;;;;;;;68.88;32.38;;;;;;;;;;6271336;28;20064;-72
2022/12/26 08:00:17;;;;;;;61.83;31.83;;;;;;;;;;6266118;28;20052;-72
2022/12/26 08:03:21;;;;;;;66.07;31.87;;;;;;;;;;6266731;28;20076;-71
2022/12/26 08:06:22;;;;;;;64.68;31.45;;;;;;;;;;6268650;28;20455;-71
2022/12/26 08:09:24;;;;;;;63.50;31.92;;;;;;;;;;6268261;28;20053;-71
2022/12/26 08:12:26;;;;;;;65.70;32.75;;;;;;;;;;6268013;28;20064;-71
2022/12/26 08:15:27;;;;;;;66.90;32.05;;;;;;;;;;6262343;28;20056;-71
2022/12/26 08:18:30;;;;;;;63.83;31.48;;;;;;;;;;6266731;28;20557;-73
2022/12/26 08:21:32;;;;;;;65.30;32.35;;;;;;;;;;6267896;28;20046;-72
2022/12/26 08:24:34;;;;;;;66.05;32.70;;;;;;;;;;6264128;28;20114;-69
2022/12/26 08:27:35;;;;;;;67.28;32.08;;;;;;;;;;6269214;28;20060;-71
2022/12/26 08:30:39;;;;;;;60.90;33.15;;;;;;;;;;6267146;28;20057;-70
2022/12/26 08:33:42;;;;;;;67.05;32.20;;;;;;;;;;6264948;28;20431;-71
2022/12/26 08:36:44;;;;;;;63.20;30.95;;;;;;;;;;6263955;28;20057;-72
2022/12/26 08:39:45;;;;;;;66.07;32.13;;;;;;;;;;6266711;28;20049;-72
2022/12/26 08:42:47;;;;;;;63.05;31.08;;;;;;;;;;6265195;28;20042;-69
2022/12/26 08:45:57;;;;;;;66.05;31.27;;;;;;;;;;6266105;28;20048;-69
2022/12/26 08:49:00;;;;;;;63.53;31.48;;;;;;;;;;6266703;28;20050;-69
2022/12/26 08:52:01;;;;;;;60.47;30.05;;;;;;;;;;6268152;28;20052;-69
2022/12/26 08:55:04;;;;;;;65.95;31.92;;;;;;;;;;6263623;28;20049;-68
2022/12/26 08:58:05;;;;;;;63.70;31.38;;;;;;;;;;6268167;28;20060;-68
2022/12/26 09:01:09;;;;;;;61.97;31.23;;;;;;;;;;6268260;28;20056;-68
2022/12/26 09:04:12;;;;;;;74.05;32.90;;;;;;;;;;6264204;28;20045;-69
2022/12/26 09:07:13;;;;;;;67.07;32.13;;;;;;;;;;6264148;28;20346;-68
2022/12/26 09:10:15;;;;;;;62.17;30.35;;;;;;;;;;6263463;28;20045;-68
2022/12/26 09:13:18;;;;;;;61.30;30.80;;;;;;;;;;6262933;28;20094;-69
2022/12/26 09:16:22;;;;;;;59.92;29.67;;;;;;;;;;6265172;28;20056;-69
2022/12/26 09:19:28;;;;;;;60.53;32.28;;;;;;;;;;6267101;28;20384;-68
2022/12/26 09:25:49;;;;;;;57.47;29.77;;;;;;;;;;6263301;28;20053;-69
2022/12/26 09:28:51;;;;;;;58.17;30.55;;;;;;;;;;6264840;28;20084;-68
2022/12/26 09:31:55;;;;;;;57.88;29.33;;;;;;;;;;6265971;28;20068;-67
2022/12/26 09:34:58;;;;;;;58.05;31.13;;;;;;;;;;6266283;28;20237;-68
2022/12/26 09:37:59;;;;;;;59.10;29.17;;;;;;;;;;6263666;28;20049;-70
2022/12/26 09:41:11;;;;;;;56.20;30.20;;;;;;;;;;6263466;28;20053;-70
2022/12/26 09:44:17;;;;;;;52.67;28.55;;;;;;;;;;6262979;28;20359;-70
2022/12/26 09:47:30;;;;;;;53.95;28.95;;;;;;;;;;6265174;28;20115;-71
2022/12/26 09:50:36;;;;;;;57.05;29.48;;;;;;;;;;6260045;28;20120;-70
2022/12/26 09:53:42;;;;;;;53.65;27.38;;;;;;;;;;6267345;28;20072;-70
2022/12/26 09:56:45;;;;;;;48.55;28.75;;;;;;;;;;6263598;28;20107;-70
2022/12/26 09:59:54;;;;;;;54.67;28.35;;;;;;;;;;6265391;28;20053;-69
2022/12/26 10:02:58;;;;;;;58.03;29.77;;;;;;;;;;6263522;28;20240;-71
2022/12/26 10:06:12;;;;;;;56.85;29.52;;;;;;;;;;6262050;28;20053;-69
2022/12/26 10:09:35;;;;;;;56.90;29.48;;;;;;;;;;6263452;28;20049;-70
2022/12/26 10:12:40;;;;;;;57.95;30.25;;;;;;;;;;6265984;28;20049;-70
2022/12/26 10:15:44;;;;;;;53.30;28.23;;;;;;;;;;6264099;28;20450;-71
2022/12/26 10:18:54;;;;;;;56.38;30.98;;;;;;;;;;6264368;28;20068;-75
2022/12/26 10:22:10;;;;;;;56.15;30.40;;;;;;;;;;6260406;28;20084;-72
2022/12/26 10:25:16;;;;;;;57.67;30.70;;;;;;;;;;6263800;28;20045;-72
2022/12/26 10:28:25;;;;;;;54.70;29.38;;;;;;;;;;6261850;28;20256;-79
2022/12/26 10:31:31;;;;;;;61.00;32.05;;;;;;;;;;6262790;28;20042;-76
2022/12/26 10:34:36;;;;;;;58.08;30.90;;;;;;;;;;6266199;28;20230;-76
2022/12/26 10:37:41;;;;;;;62.63;31.50;;;;;;;;;;6264567;28;20728;-77
2022/12/26 10:40:44;;;;;;;60.65;30.92;;;;;;;;;;6262089;28;20059;-77
2022/12/26 10:43:46;;;;;;;60.38;32.08;;;;;;;;;;6262811;28;20312;-77
2022/12/26 10:47:12;;;;;;;56.38;30.60;;;;;;;;;;6262106;28;20053;-77
2022/12/26 10:50:16;;;;;;;59.05;30.73;;;;;;;;;;6269101;28;20040;-78
2022/12/26 10:53:19;;;;;;;56.35;31.10;;;;;;;;;;6272302;28;20095;-77
2022/12/26 10:56:22;;;;;;;54.40;30.65;;;;;;;;;;6268454;28;20057;-78
2022/12/26 10:59:35;;;;;;;55.40;31.30;;;;;;;;;;6268928;28;20099;-77
2022/12/26 11:02:37;;;;;;;57.00;30.98;;;;;;;;;;6271548;28;20103;-79
2022/12/26 11:05:40;;;;;;;52.50;29.48;;;;;;;;;;6272236;28;20057;-77
2022/12/26 11:08:49;;;;;;;57.35;31.90;;;;;;;;;;6273838;28;20280;-72
2022/12/26 11:11:53;;;;;;;60.15;32.30;;;;;;;;;;6265882;28;20052;-73
2022/12/26 11:14:58;;;;;;;56.50;32.38;;;;;;;;;;6276686;28;20057;-73
2022/12/26 11:18:08;;;;;;;54.85;30.70;;;;;;;;;;6274056;28;20049;-76
2022/12/26 11:21:22;;;;;;;58.83;31.20;;;;;;;;;;6272313;28;20049;-74
2022/12/26 11:24:25;;;;;;;58.40;31.48;;;;;;;;;;6270448;28;20072;-76
2022/12/26 11:27:27;;;;;;;56.13;31.83;;;;;;;;;;6266649;28;20280;-73
2022/12/26 11:30:30;;;;;;;62.80;33.33;;;;;;;;;;6269391;28;20041;-73
2022/12/26 11:33:33;;;;;;;59.72;33.38;;;;;;;;;;6267853;28;20045;-76
2022/12/26 11:36:39;;;;;;;57.05;32.55;;;;;;;;;;6267449;28;20053;-71
2022/12/26 11:39:42;;;;;;;59.70;33.30;;;;;;;;;;6263624;28;20061;-70
2022/12/26 11:42:49;;;;;;;60.70;33.08;;;;;;;;;;6265725;28;20057;-75
2022/12/26 11:45:50;;;;;;;59.85;32.78;;;;;;;;;;6267177;28;20038;-73
2022/12/26 11:48:52;;;;;;;59.40;33.47;;;;;;;;;;6265568;28;20053;-72
2022/12/26 11:51:54;;;;;;;57.88;32.15;;;;;;;;;;6268953;28;20353;-71
2022/12/26 11:54:57;;;;;;;57.65;31.58;;;;;;;;;;6267464;28;20075;-71
2022/12/26 11:58:04;;;;;;;55.65;31.85;;;;;;;;;;6272209;28;20053;-72
2022/12/26 12:01:13;;;;;;;57.75;31.85;;;;;;;;;;6268901;28;20057;-72
2022/12/26 12:04:16;;;;;;;52.92;30.33;;;;;;;;;;6270691;28;20045;-74
2022/12/26 12:07:34;;;;;;;54.08;32.25;;;;;;;;;;6268629;28;20336;-71
2022/12/26 12:10:51;;;;;;;54.88;31.30;;;;;;;;;;6265782;28;20107;-75
2022/12/26 12:14:05;;;;;;;58.53;31.65;;;;;;;;;;6269858;28;20045;-74
2022/12/26 12:17:14;;;;;;;51.13;28.95;;;;;;;;;;6269403;28;20049;-74
2022/12/26 12:20:35;;;;;;;51.22;29.90;;;;;;;;;;6274257;28;20155;-74
2022/12/26 12:23:47;;;;;;;51.88;30.73;;;;;;;;;;6268078;28;20057;-74
2022/12/26 12:26:58;;;;;;;58.20;31.08;;;;;;;;;;6269362;28;20107;-73
2022/12/26 12:30:16;;;;;;;54.05;29.42;;;;;;;;;;6268131;28;20072;-74
2022/12/26 12:33:28;;;;;;;56.78;30.92;;;;;;;;;;6271062;28;20053;-74
2022/12/26 12:36:35;;;;;;;52.30;29.13;;;;;;;;;;6270674;28;20049;-74
2022/12/26 12:39:46;;;;;;;52.90;30.67;;;;;;;;;;6266867;28;20064;-74
2022/12/26 12:42:56;;;;;;;53.10;30.88;;;;;;;;;;6267927;28;20052;-74
2022/12/26 12:46:09;;;;;;;51.63;30.70;;;;;;;;;;6264035;28;20053;-70
2022/12/26 12:49:27;;;;;;;51.65;29.42;;;;;;;;;;6260362;28;20103;-71
2022/12/26 12:52:41;;;;;;;50.72;30.27;;;;;;;;;;6268143;28;20048;-72
2022/12/26 12:55:59;;;;;;;56.08;30.42;;;;;;;;;;6268511;28;20116;-72
2022/12/26 12:59:07;;;;;;;49.40;29.23;;;;;;;;;;6267902;28;20053;-71
2022/12/26 13:02:15;;;;;;;51.20;29.33;;;;;;;;;;6266757;28;20068;-70
2022/12/26 13:05:28;;;;;;;54.42;29.98;;;;;;;;;;6270591;28;20386;-70
2022/12/26 13:08:36;;;;;;;52.28;30.23;;;;;;;;;;6268221;28;20115;-73
2022/12/26 13:11:40;;;;;;;51.88;30.13;;;;;;;;;;6269274;28;20056;-70
2022/12/26 13:14:48;;;;;;;55.80;30.85;;;;;;;;;;6271454;28;20320;-70
2022/12/26 13:17:53;;;;;;;47.58;28.48;;;;;;;;;;6270221;28;20056;-70
2022/12/26 13:20:58;;;;;;;50.13;29.00;;;;;;;;;;6266589;28;20057;-71
2022/12/26 13:27:26;;;;;;;47.65;28.33;;;;;;;;;;6271074;28;20061;-71
2022/12/26 13:30:29;;;;;;;49.78;29.20;;;;;;;;;;6266644;28;20052;-72
2022/12/26 13:33:31;;;;;;;46.58;27.67;;;;;;;;;;6271455;28;20052;-72
2022/12/26 13:36:39;;;;;;;49.50;29.40;;;;;;;;;;6269633;28;20056;-71
2022/12/26 13:39:41;;;;;;;52.03;30.60;;;;;;;;;;6269913;28;20115;-71
2022/12/26 13:46:09;;;;;;;50.60;29.35;;;;;;;;;;6267246;28;20044;-70
2022/12/26 13:49:26;;;;;;;48.95;28.95;;;;;;;;;;6267761;28;20045;-71
2022/12/26 13:52:35;;;;;;;50.75;30.10;;;;;;;;;;6262603;28;20045;-71
2022/12/26 13:55:43;;;;;;;52.83;29.88;;;;;;;;;;6264495;28;20057;-71
2022/12/26 13:58:50;;;;;;;51.97;29.45;;;;;;;;;;6266109;28;20079;-71
2022/12/26 14:02:01;;;;;;;52.75;30.55;;;;;;;;;;6263469;28;20136;-72
2022/12/26 14:05:11;;;;;;;53.47;30.02;;;;;;;;;;6265364;28;20103;-71
2022/12/26 14:08:20;;;;;;;49.00;29.55;;;;;;;;;;6260403;28;20056;-71
2022/12/26 14:11:35;;;;;;;51.70;29.73;;;;;;;;;;6265449;28;20288;-71
2022/12/26 14:14:48;;;;;;;51.83;30.65;;;;;;;;;;6263726;28;20061;-72
2022/12/26 14:18:02;;;;;;;53.25;29.98;;;;;;;;;;6261320;28;20459;-70
2022/12/26 14:21:31;;;;;;;49.50;28.67;;;;;;;;;;6261712;28;20057;-72
2022/12/26 14:24:38;;;;;;;46.85;28.00;;;;;;;;;;6263838;28;20107;-70
2022/12/26 14:27:43;;;;;;;47.78;27.35;;;;;;;;;;6271064;28;20091;-72
2022/12/26 14:30:54;;;;;;;49.15;26.90;;;;;;;;;;6272460;28;20053;-72
2022/12/26 14:34:04;;;;;;;48.08;28.85;;;;;;;;;;6271311;28;20053;-71
2022/12/26 14:37:20;;;;;;;44.33;27.38;;;;;;;;;;6266861;28;20084;-71
2022/12/26 14:40:29;;;;;;;43.55;26.83;;;;;;;;;;6271169;28;20118;-71
2022/12/26 14:43:33;;;;;;;42.28;26.15;;;;;;;;;;6266946;28;20327;-71
2022/12/26 14:47:00;;;;;;;41.33;25.88;;;;;;;;;;6266964;28;20103;-70
2022/12/26 14:50:35;;;;;;;44.90;25.70;;;;;;;;;;6269801;28;20060;-71
2022/12/26 14:53:38;;;;;;;53.20;30.38;;;;;;;;;;6269666;28;20056;-71
2022/12/26 14:56:40;;;;;;;60.93;32.73;;;;;;;;;;6269988;28;20045;-71
2022/12/26 15:00:29;;;;;;;59.47;31.27;;;;;;;;;;6264470;28;20060;-71
2022/12/26 15:03:49;;;;;;;58.83;33.65;;;;;;;;;;6176100;28;20174;-71
2022/12/26 15:07:01;;;;;;;62.90;34.97;;;;;;;;;;6177461;28;20050;-71
2022/12/26 15:10:42;;;;;;;64.93;36.38;;;;;;;;;;6178030;28;20047;-71
2022/12/26 15:14:16;;;;;;;67.97;36.03;;;;;;;;;;6126397;29;20055;-71
2022/12/26 15:17:23;;;;;;;62.00;35.08;;;;;;;;;;6123424;29;20343;-70
2022/12/26 15:20:45;;;;;;;63.58;35.45;;;;;;;;;;6128229;28;20331;-70
2022/12/26 15:24:25;;;;;;;58.75;35.55;;;;;;;;;;6127183;28;20431;-71
2022/12/26 15:27:44;;;;;;;60.53;35.47;;;;;;;;;;6125336;29;20055;-70
2022/12/26 15:31:10;;;;;;;64.95;36.08;;;;;;;;;;6129381;28;20434;-71
2022/12/26 15:34:31;;;;;;;59.40;35.38;;;;;;;;;;6123755;28;20075;-71
2022/12/26 15:37:52;;;;;;;62.75;35.83;;;;;;;;;;6129940;28;20128;-71
2022/12/26 15:41:00;;;;;;;63.30;37.65;;;;;;;;;;6187792;28;21890;-71
2022/12/26 15:44:21;;;;;;;62.35;36.20;;;;;;;;;;6187552;28;20047;-71
2022/12/26 15:47:29;;;;;;;61.60;35.25;;;;;;;;;;6224604;28;20104;-70
2022/12/26 15:50:36;;;;;;;61.75;36.72;;;;;;;;;;6261594;28;20392;-71
2022/12/26 15:53:49;;;;;;;65.32;37.42;;;;;;;;;;6265019;28;20056;-71
2022/12/26 15:56:58;;;;;;;63.50;36.58;;;;;;;;;;6266630;28;21144;-71
2022/12/26 16:00:09;;;;;;;62.97;37.25;;;;;;;;;;6263638;28;20053;-71
2022/12/26 16:03:20;;;;;;;61.83;37.38;;;;;;;;;;6265733;28;20057;-70
2022/12/26 16:06:31;;;;;;;57.80;35.30;;;;;;;;;;6267744;28;20049;-71
2022/12/26 16:09:42;;;;;;;59.40;35.10;;;;;;;;;;6263479;28;20049;-70
2022/12/26 16:12:57;;;;;;;59.80;35.58;;;;;;;;;;6266608;28;20053;-71
2022/12/26 16:16:01;;;;;;;59.88;36.08;;;;;;;;;;6266325;28;20870;-71
2022/12/26 16:19:18;;;;;;;62.17;36.07;;;;;;;;;;6267257;28;20344;-71
2022/12/26 16:22:45;;;;;;;65.97;37.95;;;;;;;;;;6263064;28;20451;-70
2022/12/26 16:25:48;;;;;;;58.42;36.90;;;;;;;;;;6263900;28;20050;-69
2022/12/26 16:28:49;;;;;;;64.25;37.17;;;;;;;;;;6266956;28;20093;-71
2022/12/26 16:32:02;;;;;;;54.80;33.83;;;;;;;;;;6262199;28;20053;-71
2022/12/26 16:35:04;;;;;;;60.10;34.95;;;;;;;;;;6263936;28;20076;-71
2022/12/26 16:38:11;;;;;;;61.53;34.83;;;;;;;;;;6264590;28;20041;-71
2022/12/26 16:41:19;;;;;;;58.03;33.38;;;;;;;;;;6266757;28;20041;-70
2022/12/26 16:44:29;;;;;;;54.58;33.42;;;;;;;;;;6263391;28;20333;-71
2022/12/26 16:47:33;;;;;;;55.47;32.03;;;;;;;;;;6265281;28;20053;-67
2022/12/26 16:50:44;;;;;;;53.47;31.10;;;;;;;;;;6265196;28;20042;-71
2022/12/26 16:53:45;;;;;;;54.38;32.53;;;;;;;;;;6266149;28;20316;-71
2022/12/26 16:56:48;;;;;;;49.45;31.00;;;;;;;;;;6265103;28;21767;-72
2022/12/26 16:59:51;;;;;;;46.42;30.23;;;;;;;;;;6264545;28;20056;-69
2022/12/26 17:02:57;;;;;;;55.55;31.08;;;;;;;;;;6265676;28;20069;-70
2022/12/26 17:05:59;;;;;;;67.45;31.90;;;;;;;;;;6264037;28;20117;-68
2022/12/26 17:09:05;;;;;;;50.90;31.00;;;;;;;;;;6263694;28;20045;-68
2022/12/26 17:12:08;;;;;;;49.25;30.30;;;;;;;;;;6264934;28;20059;-68
2022/12/26 17:15:19;;;;;;;50.15;30.23;;;;;;;;;;6265164;28;20060;-71
2022/12/26 17:18:48;;;;;;;45.75;28.63;;;;;;;;;;6264427;28;20052;-71
2022/12/26 17:22:19;;;;;;;47.65;29.65;;;;;;;;;;6263091;28;20049;-71
2022/12/26 17:25:26;;;;;;;45.70;28.58;;;;;;;;;;6262074;28;20045;-71
2022/12/26 17:28:28;;;;;;;45.63;28.73;;;;;;;;;;6262666;28;20053;-70
2022/12/26 17:31:35;;;;;;;46.42;29.13;;;;;;;;;;6264619;28;20053;-71
2022/12/26 17:34:39;;;;;;;47.83;29.75;;;;;;;;;;6263906;28;20045;-69
2022/12/26 17:37:41;;;;;;;48.72;29.65;;;;;;;;;;6263262;28;20053;-70
2022/12/26 17:40:46;;;;;;;50.70;30.40;;;;;;;;;;6264839;28;20107;-70
2022/12/26 17:43:47;;;;;;;;;;;;;;;;;;6265840;28;20068;-70
2022/12/26 17:46:49;;;;;;;45.10;29.38;;;;;;;;;;6265826;28;19940;-70
2022/12/26 17:49:53;;;;;;;46.88;29.95;;;;;;;;;;6264431;28;20122;-73
2022/12/26 17:52:54;;;;;;;45.80;28.83;;;;;;;;;;6265890;28;21022;-70
2022/12/26 17:55:57;;;;;;;44.50;27.83;;;;;;;;;;6262951;28;20377;-71
2022/12/26 17:58:59;;;;;;;41.60;28.30;;;;;;;;;;6261518;28;20049;-71
2022/12/26 18:02:01;;;;;;;42.67;27.90;;;;;;;;;;6261992;28;20049;-71
2022/12/26 18:05:05;;;;;;;44.72;28.10;;;;;;;;;;6262072;28;20053;-71
2022/12/26 18:08:07;;;;;;;44.22;27.98;;;;;;;;;;6264069;28;20052;-71
2022/12/26 18:11:10;;;;;;;43.28;28.02;;;;;;;;;;6264708;28;20048;-71
2022/12/26 18:14:13;;;;;;;46.37;28.67;;;;;;;;;;6261588;28;20103;-71
2022/12/26 18:17:17;;;;;;;47.33;28.65;;;;;;;;;;6263002;28;20467;-71
2022/12/26 18:20:22;;;;;;;43.33;29.08;;;;;;;;;;6262834;28;20049;-71
2022/12/26 18:23:24;;;;;;;44.25;28.48;;;;;;;;;;6263528;28;20072;-71
2022/12/26 18:26:28;;;;;;;39.97;27.08;;;;;;;;;;6263672;28;20751;-71
2022/12/26 18:29:29;;;;;;;43.38;28.38;;;;;;;;;;6264593;28;20095;-70
2022/12/26 18:32:32;;;;;;;47.47;28.63;;;;;;;;;;6262426;28;20054;-71
2022/12/26 18:35:35;;;;;;;44.40;28.90;;;;;;;;;;6261119;28;20091;-71
2022/12/26 18:38:37;;;;;;;46.38;28.92;;;;;;;;;;6264203;28;20123;-70
2022/12/26 18:41:38;;;;;;;42.63;28.77;;;;;;;;;;6263139;28;20387;-72
2022/12/26 18:44:41;;;;;;;41.67;27.33;;;;;;;;;;6262213;28;20131;-72
2022/12/26 18:47:42;;;;;;;45.38;29.20;;;;;;;;;;6263676;28;20107;-71
2022/12/26 18:50:46;;;;;;;42.88;28.25;;;;;;;;;;6262610;28;20045;-71
2022/12/26 18:53:48;;;;;;;43.85;27.60;;;;;;;;;;6263634;28;20654;-71
2022/12/26 18:56:49;;;;;;;43.20;27.33;;;;;;;;;;6262217;28;20119;-71
2022/12/26 18:59:51;;;;;;;41.75;27.77;;;;;;;;;;6263390;28;20140;-70
2022/12/26 19:02:54;;;;;;;41.95;27.83;;;;;;;;;;6268819;28;20064;-71
2022/12/26 19:05:57;;;;;;;45.53;29.10;;;;;;;;;;6264679;28;20052;-71
2022/12/26 19:08:59;;;;;;;47.00;29.42;;;;;;;;;;6269987;28;20099;-71
2022/12/26 19:12:00;;;;;;;45.20;29.13;;;;;;;;;;6273826;28;20065;-71
2022/12/26 19:15:02;;;;;;;42.97;27.40;;;;;;;;;;6271700;28;20041;-71
2022/12/26 19:18:04;;;;;;;46.75;29.67;;;;;;;;;;6274245;28;20138;-69
2022/12/26 19:21:12;;;;;;;46.70;29.20;;;;;;;;;;6271740;28;20046;-70
2022/12/26 19:24:14;;;;;;;44.28;28.92;;;;;;;;;;6273238;28;20124;-70
2022/12/26 19:27:16;;;;;;;48.22;30.35;;;;;;;;;;6272823;28;20106;-69
2022/12/26 19:30:18;;;;;;;49.85;30.25;;;;;;;;;;6272217;28;20069;-69
2022/12/26 19:33:20;;;;;;;42.17;28.42;;;;;;;;;;6270597;28;20045;-69
2022/12/26 19:36:23;;;;;;;44.92;28.33;;;;;;;;;;6268445;28;20126;-68
2022/12/26 19:39:24;;;;;;;46.88;29.80;;;;;;;;;;6270433;28;20370;-69
2022/12/26 19:42:26;;;;;;;51.58;30.67;;;;;;;;;;6269207;28;20048;-69
2022/12/26 19:45:28;;;;;;;51.85;30.15;;;;;;;;;;6273399;28;20053;-68
2022/12/26 19:48:30;;;;;;;51.00;30.13;;;;;;;;;;6267771;28;20348;-69
2022/12/26 19:51:33;;;;;;;49.40;30.15;;;;;;;;;;6266199;28;20321;-70
2022/12/26 19:54:35;;;;;;;45.67;30.25;;;;;;;;;;6268991;28;20057;-70
2022/12/26 19:57:37;;;;;;;51.95;32.17;;;;;;;;;;6269368;28;20045;-70
2022/12/26 20:00:38;;;;;;;47.38;29.73;;;;;;;;;;6268890;28;20048;-70
2022/12/26 20:03:40;;;;;;;48.67;31.00;;;;;;;;;;6267689;28;20107;-69
2022/12/26 20:06:43;;;;;;;48.78;31.15;;;;;;;;;;6274073;28;20100;-70
2022/12/26 20:09:45;;;;;;;50.70;31.38;;;;;;;;;;6269997;28;20276;-70
2022/12/26 20:12:47;;;;;;;54.50;31.70;;;;;;;;;;6268386;28;20061;-70
2022/12/26 20:15:48;;;;;;;51.35;32.00;;;;;;;;;;6267111;28;20053;-69
2022/12/26 20:18:50;;;;;;;57.33;36.25;;;;;;;;;;6271750;28;20057;-69
2022/12/26 20:21:54;;;;;;;52.35;32.63;;;;;;;;;;6271851;28;20049;-69
2022/12/26 20:24:55;;;;;;;58.57;33.90;;;;;;;;;;6269756;28;20045;-68